Time;durP1;ratioP1;P1;durP2;ratioP2;P2;SDS_P1;SDS_P2;PMS_P1;PMS_P2;Temp;Humidity;BMP_temperature;BMP_pressure;BME280_temperature;BME280_humidity;BME280_pressure;Samples;Min_cycle;Max_cycle;Signal;HPM_P1;HPM_P2
2021/07/01 00:01:54;;;;;;;31.77;15.05;;;17.80;99.90;;;16.62;100.00;100305.22;4971133;28;20034;-76
2021/07/01 00:04:21;;;;;;;29.38;14.88;;;17.80;99.90;;;16.65;100.00;100307.66;4981620;28;20063;-75
2021/07/01 00:06:48;;;;;;;37.15;14.40;;;17.90;99.90;;;16.68;100.00;100303.91;4981750;28;20468;-76
2021/07/01 00:09:15;;;;;;;39.05;15.32;;;17.90;99.90;;;16.66;100.00;100306.69;4987367;28;20156;-76
2021/07/01 00:11:47;;;;;;;30.30;15.05;;;17.90;99.90;;;16.66;100.00;100303.19;4967593;28;20079;-75
2021/07/01 00:14:13;;;;;;;42.25;15.85;;;17.90;99.90;;;16.73;100.00;100294.59;4971450;28;20512;-76
2021/07/01 00:16:39;;;;;;;38.67;15.60;;;18.00;99.90;;;16.71;100.00;100303.66;4970719;28;20401;-75
2021/07/01 00:19:07;;;;;;;34.45;16.45;;;18.00;99.90;;;16.75;100.00;100300.63;4983212;28;20482;-76
2021/07/01 00:21:33;;;;;;;31.27;15.77;;;17.90;99.90;;;16.74;100.00;100290.97;4983178;28;20456;-76
2021/07/01 00:24:00;;;;;;;33.35;16.00;;;17.90;99.90;;;16.75;100.00;100289.16;4955886;28;20502;-75
2021/07/01 00:26:27;;;;;;;42.67;17.77;;;17.90;99.90;;;16.73;100.00;100291.09;4981077;28;20121;-76
2021/07/01 00:28:53;;;;;;;38.17;16.42;;;17.90;99.90;;;16.72;100.00;100292.91;4996931;28;20025;-75
2021/07/01 00:31:19;;;;;;;37.35;15.90;;;18.00;99.90;;;16.74;100.00;100288.31;4993551;28;20135;-76
2021/07/01 00:33:46;;;;;;;38.55;17.05;;;18.00;99.90;;;16.78;100.00;100280.91;5001889;28;20149;-75
2021/07/01 00:36:11;;;;;;;35.35;17.40;;;18.00;99.90;;;16.77;100.00;100287.22;4989449;28;20075;-76
2021/07/01 00:38:37;;;;;;;41.88;17.80;;;18.00;99.90;;;16.76;100.00;100286.38;4981893;28;20056;-75
2021/07/01 00:41:03;;;;;;;35.97;16.40;;;18.00;99.90;;;16.84;100.00;100288.44;4990516;28;20018;-75
2021/07/01 00:43:29;;;;;;;39.88;16.35;;;18.00;99.90;;;16.82;100.00;100282.41;5006865;28;20203;-75
2021/07/01 00:45:55;;;;;;;33.50;15.57;;;18.00;99.90;;;16.79;100.00;100278.16;4990237;28;20393;-76
2021/07/01 00:48:21;;;;;;;39.85;15.95;;;18.00;99.90;;;16.78;100.00;100279.13;5011618;28;20022;-77
2021/07/01 00:50:48;;;;;;;40.47;17.50;;;18.00;99.90;;;16.78;100.00;100279.13;4992048;28;20064;-76
2021/07/01 00:53:14;;;;;;;35.58;16.67;;;18.00;99.90;;;16.83;100.00;100269.97;4991101;28;20132;-76
2021/07/01 00:55:40;;;;;;;39.67;16.17;;;18.00;99.90;;;16.79;100.00;100269.34;5001999;28;20121;-77
2021/07/01 00:58:06;;;;;;;32.30;14.98;;;18.00;99.90;;;16.79;100.00;100259.53;4980487;28;20486;-76
2021/07/01 01:01:00;;;;;;;33.50;15.25;;;18.00;99.90;;;16.84;100.00;100256.53;5014065;28;20075;-77
2021/07/01 01:03:26;;;;;;;29.20;13.27;;;18.10;99.90;;;16.91;100.00;100254.22;5002156;28;20064;-76
2021/07/01 01:05:52;;;;;;;30.65;15.40;;;18.10;99.90;;;16.98;100.00;100260.75;4982169;28;20103;-76
2021/07/01 01:08:18;;;;;;;38.80;15.38;;;18.20;99.90;;;17.00;100.00;100250.84;4991364;28;21269;-76
2021/07/01 01:10:43;;;;;;;30.80;14.10;;;18.20;99.90;;;16.99;100.00;100262.44;4999826;28;20395;-76
2021/07/01 01:13:10;;;;;;;36.80;14.30;;;18.10;99.90;;;16.98;100.00;100260.75;4996775;28;20065;-75
2021/07/01 01:15:36;;;;;;;37.75;15.32;;;18.10;99.90;;;16.94;100.00;100254.84;5003414;28;20030;-76
2021/07/01 01:18:03;;;;;;;31.42;14.88;;;18.10;99.90;;;16.82;100.00;100258.47;4984306;28;20503;-75
2021/07/01 01:20:29;;;;;;;35.13;15.43;;;18.10;99.90;;;16.87;100.00;100256.31;4975320;28;20034;-76
2021/07/01 01:22:59;;;;;;;35.53;16.25;;;18.00;99.90;;;16.80;100.00;100249.78;5008020;28;20033;-75
2021/07/01 01:25:25;;;;;;;35.30;15.38;;;18.00;99.90;;;16.78;100.00;100254.31;4989622;28;20055;-76
2021/07/01 01:27:51;;;;;;;39.47;16.42;;;18.00;99.90;;;16.76;100.00;100248.28;5000816;28;20451;-76
2021/07/01 01:30:18;;;;;;;34.67;15.40;;;17.90;99.90;;;16.70;100.00;100236.34;5002905;28;20555;-76
2021/07/01 01:32:44;;;;;;;32.63;15.43;;;18.00;99.90;;;16.75;100.00;100238.63;5002533;28;20018;-76
2021/07/01 01:35:10;;;;;;;41.10;16.65;;;18.00;99.90;;;16.80;100.00;100239.13;4979649;28;20073;-77
2021/07/01 01:37:36;;;;;;;34.85;14.85;;;18.00;99.90;;;16.79;100.00;100234.78;4989125;28;20064;-76
2021/07/01 01:40:04;;;;;;;38.80;16.63;;;18.00;99.90;;;16.83;100.00;100238.91;4999123;28;20375;-75
2021/07/01 01:42:30;;;;;;;32.47;15.93;;;18.00;99.90;;;16.88;100.00;100236.72;5004394;28;20040;-76
2021/07/01 01:44:55;;;;;;;41.58;16.27;;;18.10;99.90;;;16.92;100.00;100232.00;4990896;28;20046;-76
2021/07/01 01:47:21;;;;;;;40.08;15.27;;;18.10;99.90;;;16.92;100.00;100235.50;5002803;28;20028;-76
2021/07/01 01:49:50;;;;;;;34.10;15.27;;;18.10;99.90;;;16.90;100.00;100234.78;5019577;28;21133;-77
2021/07/01 01:52:17;;;;;;;35.33;15.43;;;18.20;99.90;;;16.93;100.00;100233.66;5034128;28;20048;-76
2021/07/01 01:54:43;;;;;;;37.05;14.57;;;18.10;99.90;;;16.95;100.00;100235.25;5006806;28;20083;-76
2021/07/01 01:57:09;;;;;;;38.47;14.40;;;18.20;99.90;;;17.00;100.00;100232.22;4989464;28;20026;-76
2021/07/01 01:59:35;;;;;;;32.80;14.57;;;17.70;99.90;;;16.97;100.00;100237.78;5006458;28;20029;-75
2021/07/01 02:02:02;;;;;;;30.80;13.23;;;18.20;99.90;;;17.06;100.00;100226.38;5002405;28;20048;-76
2021/07/01 02:04:27;;;;;;;28.65;14.43;;;18.20;99.90;;;16.96;100.00;100226.31;4996756;28;20088;-76
2021/07/01 02:06:55;;;;;;;32.50;14.35;;;18.20;99.90;;;16.93;100.00;100228.34;4992954;28;20502;-76
2021/07/01 02:09:22;;;;;;;31.50;14.70;;;18.10;99.90;;;16.90;100.00;100229.47;5017433;28;20041;-76
2021/07/01 02:11:49;;;;;;;29.60;12.63;;;18.10;99.90;;;16.88;100.00;100231.38;4996416;28;20020;-76
2021/07/01 02:14:17;;;;;;;34.05;12.88;;;18.10;99.90;;;16.87;100.00;100237.69;5009761;28;20034;-76
2021/07/01 02:16:43;;;;;;;28.30;12.65;;;18.00;99.90;;;16.86;100.00;100233.31;5003641;28;20113;-76
2021/07/01 02:19:09;;;;;;;39.95;14.00;;;18.00;99.90;;;16.80;100.00;100240.00;5002130;28;20079;-75
2021/07/01 02:21:35;;;;;;;41.80;13.25;;;18.00;99.90;;;16.84;100.00;100240.59;5003062;28;20026;-76
2021/07/01 02:24:01;;;;;;;33.00;13.10;;;18.00;99.90;;;16.89;100.00;100235.75;5004692;28;20033;-77
2021/07/01 02:26:27;;;;;;;29.10;12.65;;;18.10;99.90;;;16.85;100.00;100246.75;4979318;28;20533;-76
2021/07/01 02:28:53;;;;;;;23.42;12.13;;;18.10;99.90;;;16.86;100.00;100235.97;4964646;28;20113;-76
2021/07/01 02:31:18;;;;;;;34.05;13.90;;;18.10;99.90;;;16.95;100.00;100229.94;4983114;28;20478;-76
2021/07/01 02:33:44;;;;;;;26.50;13.75;;;18.10;99.90;;;16.98;100.00;100227.03;4982878;28;20030;-76
2021/07/01 02:36:10;;;;;;;27.40;12.35;;;18.10;99.90;;;16.92;100.00;100227.50;4983714;28;20064;-75
2021/07/01 02:38:36;;;;;;;29.52;13.73;;;18.10;99.90;;;16.96;100.00;100228.13;4983685;28;20022;-76
2021/07/01 02:41:02;;;;;;;36.10;12.60;;;18.20;99.90;;;16.99;100.00;100227.88;4982102;28;20030;-76
2021/07/01 02:43:28;;;;;;;33.92;13.43;;;18.20;99.90;;;16.96;100.00;100228.97;4975529;28;20035;-75
2021/07/01 02:45:54;;;;;;;23.88;12.50;;;18.20;99.90;;;17.01;100.00;100229.41;5012637;28;20154;-75
2021/07/01 02:48:20;;;;;;;30.33;13.25;;;18.20;99.90;;;17.00;100.00;100225.09;5000160;28;20096;-76
2021/07/01 02:50:46;;;;;;;31.52;12.45;;;18.20;99.90;;;17.05;100.00;100221.22;5004058;28;20111;-76
2021/07/01 02:53:12;;;;;;;34.65;13.07;;;18.30;99.90;;;17.09;100.00;100223.50;4996396;28;20522;-76
2021/07/01 02:55:38;;;;;;;27.85;12.25;;;18.30;99.90;;;17.12;100.00;100211.75;5014687;28;20022;-75
2021/07/01 02:58:04;;;;;;;23.25;11.52;;;18.30;99.90;;;17.12;100.00;100211.75;5000425;28;20111;-76
2021/07/01 03:00:30;;;;;;;26.00;12.30;;;18.30;99.90;;;17.11;100.00;100210.06;5002632;28;20537;-76
2021/07/01 03:02:56;;;;;;;29.05;13.35;;;18.30;99.90;;;17.18;100.00;100213.91;5000553;28;20041;-75
2021/07/01 03:05:22;;;;;;;28.42;12.88;;;18.40;99.90;;;17.16;100.00;100208.69;5002106;28;20057;-76
2021/07/01 03:07:48;;;;;;;27.00;13.50;;;18.40;99.90;;;17.21;100.00;100210.97;4990143;28;20022;-76
2021/07/01 03:10:14;;;;;;;29.42;13.27;;;18.40;99.90;;;17.29;100.00;100207.69;5001927;28;20064;-75
2021/07/01 03:12:40;;;;;;;37.72;14.10;;;18.50;99.90;;;17.27;100.00;100213.13;4999421;28;20034;-76
2021/07/01 03:15:06;;;;;;;21.13;12.55;;;18.90;99.90;;;17.27;100.00;100217.63;5017733;28;20647;-75
2021/07/01 03:17:32;;;;;;;24.70;12.90;;;18.40;99.90;;;17.25;100.00;100209.75;5002103;28;20474;-76
2021/07/01 03:19:58;;;;;;;25.38;13.38;;;18.50;99.90;;;17.31;100.00;100203.09;4991058;28;20029;-75
2021/07/01 03:22:24;;;;;;;29.35;13.00;;;18.50;99.90;;;17.31;100.00;100208.41;5000098;28;20022;-75
2021/07/01 03:24:49;;;;;;;30.10;12.93;;;20.00;99.90;;;17.34;100.00;100211.69;4998068;28;20529;-76
2021/07/01 03:27:15;;;;;;;29.13;13.05;;;18.50;99.90;;;17.33;100.00;100214.47;4997477;28;20490;-75
2021/07/01 03:29:42;;;;;;;23.70;13.48;;;18.50;99.90;;;17.29;100.00;100208.53;5007901;28;20517;-75
2021/07/01 03:32:08;;;;;;;33.83;13.48;;;18.40;99.90;;;17.30;100.00;100214.69;5003918;28;20136;-75
2021/07/01 03:34:34;;;;;;;31.00;12.85;;;18.50;99.90;;;17.38;100.00;100213.09;5001344;28;20033;-76
2021/07/01 03:37:00;;;;;;;27.67;12.45;;;18.40;99.90;;;17.30;100.00;100212.03;4992596;28;20038;-76
2021/07/01 03:39:26;;;;;;;25.05;12.70;;;18.50;99.90;;;17.26;100.00;100208.81;5000792;28;20513;-76
2021/07/01 03:41:53;;;;;;;29.17;13.30;;;18.50;99.90;;;17.27;100.00;100207.81;4984216;28;20055;-75
2021/07/01 03:44:18;;;;;;;24.90;12.52;;;18.50;99.90;;;17.28;100.00;100211.31;5000727;28;20488;-75
2021/07/01 03:46:45;;;;;;;25.35;11.07;;;18.40;99.90;;;17.22;100.00;100210.03;4999062;28;20042;-76
2021/07/01 03:49:12;;;;;;;21.52;11.07;;;18.40;99.90;;;17.18;100.00;100211.25;5017363;28;20086;-75
2021/07/01 03:51:39;;;;;;;26.50;10.60;;;;;;;17.19;100.00;100208.47;4982040;28;20100;-75
2021/07/01 03:54:05;;;;;;;25.58;10.75;;;18.40;99.90;;;17.22;100.00;100202.03;4981535;28;20417;-76
2021/07/01 03:56:41;;;;;;;24.35;11.20;;;18.40;99.90;;;17.21;100.00;100205.66;4980186;28;20088;-75
2021/07/01 03:59:13;;;;;;;19.27;11.10;;;18.40;99.90;;;17.16;100.00;100208.69;4962228;28;20450;-75
2021/07/01 04:01:40;;;;;;;23.25;10.20;;;18.40;99.90;;;17.24;100.00;100205.41;4987900;28;20031;-75
2021/07/01 04:04:07;;;;;;;23.95;10.32;;;18.40;99.90;;;17.16;100.00;100205.22;4980589;28;20060;-75
2021/07/01 04:06:34;;;;;;;20.25;9.90;;;18.40;99.90;;;17.13;100.00;100214.28;4981496;28;20117;-76
2021/07/01 04:09:02;;;;;;;24.77;11.38;;;18.40;99.90;;;17.16;100.00;100208.69;4978995;28;20037;-75
2021/07/01 04:11:28;;;;;;;23.25;10.75;;;18.30;99.90;;;17.11;100.00;100210.06;4981123;28;20434;-76
2021/07/01 04:13:56;;;;;;;18.50;9.82;;;18.30;99.90;;;17.15;100.00;100200.88;4976027;28;20393;-76
2021/07/01 04:16:22;;;;;;;24.00;10.20;;;18.30;99.90;;;17.11;100.00;100204.75;4991038;28;20065;-75
2021/07/01 04:18:49;;;;;;;24.40;10.25;;;18.30;99.90;;;17.15;100.00;100204.38;4983055;28;20030;-75
2021/07/01 04:21:15;;;;;;;21.35;9.93;;;18.30;99.90;;;17.10;100.00;100205.72;4980726;28;20068;-76
2021/07/01 04:23:41;;;;;;;19.33;9.07;;;18.30;99.90;;;17.08;100.00;100199.66;4979517;28;20034;-75
2021/07/01 04:26:07;;;;;;;19.08;8.23;;;18.30;99.90;;;17.10;100.00;100200.38;4999224;28;20026;-75
2021/07/01 04:28:32;;;;;;;23.27;9.20;;;18.20;99.90;;;17.07;100.00;100200.66;4979638;28;20038;-75
2021/07/01 04:31:00;;;;;;;19.58;8.48;;;18.20;99.90;;;17.04;100.00;100201.75;4977505;28;20030;-76
2021/07/01 04:33:26;;;;;;;16.30;8.60;;;18.20;99.90;;;17.02;100.00;100204.53;4981102;28;20026;-76
2021/07/01 04:35:52;;;;;;;23.98;8.77;;;18.20;99.90;;;17.03;100.00;100205.38;4979712;28;20143;-75
2021/07/01 04:38:19;;;;;;;17.80;7.70;;;18.20;99.90;;;17.09;100.00;100198.72;4981245;28;20394;-76
2021/07/01 04:40:46;;;;;;;18.90;7.97;;;18.20;99.90;;;17.05;100.00;100206.09;4962720;28;20061;-75
2021/07/01 04:43:12;;;;;;;16.58;6.60;;;18.20;99.90;;;17.06;100.00;100205.09;4962486;28;20126;-76
2021/07/01 04:45:38;;;;;;;19.92;6.43;;;18.20;99.90;;;17.06;100.00;100209.59;4980934;28;20030;-75
2021/07/01 04:48:08;;;;;;;15.30;6.97;;;18.20;99.90;;;17.08;100.00;100210.31;4979457;28;20523;-75
2021/07/01 04:50:34;;;;;;;14.68;6.65;;;18.30;99.90;;;17.05;100.00;100210.56;4980847;28;20034;-75
2021/07/01 04:53:00;;;;;;;14.57;6.65;;;18.30;99.90;;;17.07;100.00;100211.28;4964573;28;20504;-74
2021/07/01 04:55:26;;;;;;;13.35;6.32;;;18.30;99.90;;;17.09;100.00;100217.34;4990325;28;20031;-75
2021/07/01 04:57:52;;;;;;;13.98;6.60;;;18.30;99.90;;;17.04;100.00;100215.06;4981003;28;20049;-75
2021/07/01 05:00:18;;;;;;;17.70;6.40;;;18.20;99.90;;;17.03;100.00;100223.97;4971311;28;20255;-75
2021/07/01 05:02:44;;;;;;;13.55;5.60;;;18.30;99.90;;;17.04;100.00;100219.50;4978877;28;20033;-75
2021/07/01 05:05:10;;;;;;;11.98;5.65;;;18.20;99.90;;;17.04;100.00;100224.81;4976193;28;20046;-75
2021/07/01 05:07:44;;;;;;;11.95;6.10;;;18.20;99.90;;;17.07;100.00;100219.28;4962413;28;20158;-75
2021/07/01 05:10:12;;;;;;;14.68;5.88;;;18.30;99.90;;;17.05;100.00;100219.38;4963901;28;20034;-75
2021/07/01 05:12:38;;;;;;;14.27;4.80;;;18.30;99.90;;;17.12;100.00;100219.72;4996380;28;20034;-75
2021/07/01 05:15:05;;;;;;;11.27;5.47;;;18.30;99.90;;;17.07;100.00;100220.09;4979177;28;20042;-76
2021/07/01 05:17:33;;;;;;;17.95;6.15;;;18.30;99.90;;;17.07;100.00;100224.59;4956903;28;21516;-76
2021/07/01 05:19:59;;;;;;;16.42;6.15;;;18.30;99.90;;;17.09;100.00;100230.63;4997217;28;20363;-75
2021/07/01 05:22:25;;;;;;;20.10;6.15;;;18.30;99.90;;;17.20;100.00;100227.94;4999862;28;20022;-75
2021/07/01 05:24:51;;;;;;;15.25;5.72;;;18.30;99.90;;;17.02;100.00;100227.63;4977901;28;20043;-75
2021/07/01 05:27:17;;;;;;;11.85;5.10;;;18.20;99.90;;;16.99;100.00;100227.88;4982260;28;20150;-75
2021/07/01 05:29:43;;;;;;;17.50;4.88;;;18.20;99.90;;;17.00;100.00;100229.56;4978839;28;20422;-75
2021/07/01 05:32:09;;;;;;;10.90;4.93;;;18.20;99.90;;;16.96;100.00;100228.97;4978718;28;20027;-75
2021/07/01 05:34:35;;;;;;;12.90;5.00;;;18.20;99.90;;;17.01;100.00;100221.44;4983783;28;20048;-75
2021/07/01 05:37:01;;;;;;;10.57;4.63;;;18.10;99.90;;;16.92;100.00;100232.84;4959371;28;20466;-75
2021/07/01 05:39:27;;;;;;;16.95;5.00;;;18.10;99.90;;;16.93;100.00;100239.00;4982870;28;20088;-75
2021/07/01 05:41:53;;;;;;;10.77;4.43;;;18.10;99.90;;;16.89;100.00;100227.78;4980021;28;21078;-74
2021/07/01 05:44:19;;;;;;;11.80;5.43;;;18.10;99.90;;;16.87;100.00;100236.81;4978017;28;20026;-74
2021/07/01 05:46:45;;;;;;;13.32;4.85;;;18.00;99.90;;;16.75;100.00;100247.44;4997760;28;20576;-75
2021/07/01 05:49:12;;;;;;;13.65;5.00;;;18.00;99.90;;;16.68;100.00;100237.44;4997446;28;20517;-75
2021/07/01 05:51:39;;;;;;;14.40;5.05;;;17.90;99.90;;;16.69;100.00;100242.63;4997415;28;20048;-75
2021/07/01 05:56:36;;;;;;;13.30;4.97;;;17.90;99.90;;;16.71;100.00;100242.50;4999293;28;20053;-75
2021/07/01 05:59:06;;;;;;;10.23;4.38;;;17.90;99.90;;;16.64;100.00;100242.16;4999016;28;20029;-74
2021/07/01 06:01:32;;;;;;;8.50;3.63;;;17.90;99.90;;;16.59;100.00;100244.34;4994564;28;20069;-75
2021/07/01 06:03:59;;;;;;;12.68;4.28;;;17.80;99.90;;;16.58;100.00;100240.81;4999590;28;20030;-75
2021/07/01 06:06:25;;;;;;;12.82;4.18;;;17.80;99.90;;;16.54;100.00;100246.50;4994670;28;20072;-76
2021/07/01 06:08:53;;;;;;;13.82;3.50;;;17.80;99.90;;;16.55;100.00;100243.72;4998723;28;20021;-75
2021/07/01 06:11:19;;;;;;;10.07;3.85;;;17.70;99.90;;;16.47;100.00;100251.47;4998216;28;20170;-76
2021/07/01 06:13:45;;;;;;;13.80;4.53;;;17.60;99.90;;;16.39;100.00;100253.88;5002361;28;20067;-75
2021/07/01 06:16:14;;;;;;;15.00;4.00;;;17.60;99.90;;;16.39;100.00;100256.53;4999160;28;20769;-75
2021/07/01 06:18:42;;;;;;;10.85;4.22;;;17.60;99.90;;;16.41;100.00;100259.91;4969762;28;20037;-76
2021/07/01 06:21:09;;;;;;;8.68;4.10;;;17.60;99.90;;;16.34;100.00;100258.72;4999990;28;20055;-76
2021/07/01 06:23:40;;;;;;;12.32;4.22;;;17.50;99.90;;;16.20;100.00;100254.47;4998087;28;20056;-76
2021/07/01 06:26:07;;;;;;;9.57;3.88;;;17.40;99.90;;;16.13;100.00;100256.78;4997233;28;20076;-78
2021/07/01 06:28:40;;;;;;;13.80;4.28;;;17.40;99.90;;;16.10;100.00;100259.66;4965976;28;20057;-78
2021/07/01 06:31:10;;;;;;;7.80;3.55;;;17.40;99.90;;;16.09;100.00;100263.28;4958517;28;20080;-77
2021/07/01 06:33:41;;;;;;;13.30;4.13;;;17.30;99.90;;;16.08;100.00;100261.56;4984362;28;20075;-77
2021/07/01 06:36:10;;;;;;;11.30;4.15;;;17.30;99.90;;;16.00;100.00;100263.97;4958536;28;20134;-77
2021/07/01 06:38:45;;;;;;;10.10;4.07;;;17.20;99.90;;;16.03;100.00;100269.06;4973282;28;20034;-77
2021/07/01 06:41:13;;;;;;;10.57;4.75;;;17.30;99.90;;;16.12;100.00;100272.81;5000148;28;20129;-76
2021/07/01 06:43:41;;;;;;;12.43;4.28;;;17.40;99.90;;;16.15;100.00;100267.25;4992070;28;20033;-76
2021/07/01 06:46:08;;;;;;;12.50;4.15;;;17.40;99.90;;;16.11;100.00;100263.13;4976044;28;20068;-76
2021/07/01 06:48:36;;;;;;;15.70;4.88;;;17.30;99.90;;;16.09;100.00;100271.25;4983191;28;20033;-76
2021/07/01 06:51:03;;;;;;;13.18;4.63;;;17.30;99.90;;;16.06;100.00;100266.16;4995223;28;20543;-75
2021/07/01 06:53:35;;;;;;;10.70;4.47;;;17.30;99.90;;;16.08;100.00;100269.53;4995705;28;20033;-76
2021/07/01 06:56:01;;;;;;;12.27;4.78;;;17.40;99.90;;;16.11;100.00;100263.13;5002208;28;20427;-77
2021/07/01 06:58:28;;;;;;;10.60;5.00;;;17.40;99.90;;;16.13;100.00;100267.41;4986691;28;20067;-76
2021/07/01 07:00:56;;;;;;;16.00;5.38;;;17.30;99.90;;;16.08;100.00;100266.88;4991075;28;20547;-76
2021/07/01 07:03:23;;;;;;;18.05;5.68;;;17.40;99.90;;;16.12;100.00;100265.69;5003879;28;20063;-76
2021/07/01 07:05:52;;;;;;;10.13;5.35;;;17.40;99.90;;;16.14;100.00;100261.09;4986660;28;20037;-76
2021/07/01 07:08:20;;;;;;;16.27;6.22;;;18.30;99.90;;;16.16;100.00;100263.66;4993006;28;20060;-76
2021/07/01 07:10:46;;;;;;;15.40;5.65;;;17.40;99.90;;;16.25;100.00;100267.41;4974122;28;20451;-76
2021/07/01 07:13:14;;;;;;;14.35;5.60;;;17.50;99.90;;;16.17;100.00;100255.53;4975787;28;20113;-76
2021/07/01 07:15:43;;;;;;;15.25;5.03;;;17.50;99.90;;;16.25;100.00;100268.25;4974022;28;20022;-75
2021/07/01 07:18:19;;;;;;;14.82;5.30;;;17.40;99.90;;;16.28;100.00;100270.66;4996859;28;20060;-76
2021/07/01 07:20:52;;;;;;;13.40;5.00;;;17.50;99.90;;;16.32;100.00;100264.13;4990701;28;20056;-77
2021/07/01 07:23:27;;;;;;;11.85;5.10;;;17.50;99.90;;;16.31;100.00;100269.59;5000015;28;20037;-77
2021/07/01 07:25:54;;;;;;;12.20;4.17;;;17.50;99.90;;;16.32;100.00;100273.91;5005287;28;20447;-76
2021/07/01 07:28:24;;;;;;;8.43;4.47;;;17.60;99.90;;;16.33;100.00;100273.81;4984138;28;20139;-76
2021/07/01 07:30:55;;;;;;;14.18;4.60;;;17.50;99.90;;;16.31;100.00;100270.44;4980709;28;20084;-76
2021/07/01 07:33:28;;;;;;;11.98;4.63;;;17.50;99.90;;;16.36;100.00;100264.75;4990891;28;20045;-76
2021/07/01 07:35:55;;;;;;;8.77;4.20;;;17.50;99.90;;;16.33;100.00;100276.47;4976006;28;20064;-75
2021/07/01 07:38:26;;;;;;;14.43;4.95;;;17.60;99.90;;;16.34;100.00;100272.00;5004054;28;20977;-76
2021/07/01 07:40:53;;;;;;;10.68;4.13;;;17.60;99.90;;;16.34;100.00;100272.00;4965834;28;20461;-76
2021/07/01 07:43:22;;;;;;;9.93;4.22;;;17.40;99.90;;;16.24;100.00;100276.31;5006759;28;20099;-76
2021/07/01 07:45:51;;;;;;;11.90;3.95;;;17.40;99.90;;;16.24;100.00;100278.97;4981869;28;20034;-76
2021/07/01 07:48:18;;;;;;;10.63;3.92;;;17.60;99.90;;;16.35;100.00;100279.00;4967176;28;20112;-77
2021/07/01 07:50:51;;;;;;;11.60;4.18;;;17.60;99.90;;;16.40;100.00;100290.13;4979757;28;20057;-76
2021/07/01 07:53:29;;;;;;;7.97;4.25;;;17.60;99.90;;;16.37;100.00;100283.22;4954212;28;20038;-76
2021/07/01 07:56:16;;;;;;;6.65;3.40;;;17.60;99.90;;;16.39;100.00;100283.97;4965276;28;20026;-75
2021/07/01 07:58:50;;;;;;;8.45;3.63;;;17.70;99.90;;;16.39;100.00;100288.41;4956604;28;20041;-77
2021/07/01 08:01:16;;;;;;;9.35;3.28;;;17.70;99.90;;;16.35;100.00;100295.78;4989331;28;20038;-77
2021/07/01 08:03:43;;;;;;;7.57;3.50;;;17.70;99.90;;;16.46;100.00;100286.97;4962476;28;20060;-76
2021/07/01 08:06:11;;;;;;;7.10;3.60;;;17.70;99.90;;;16.38;100.00;100297.34;4991279;28;20076;-76
2021/07/01 08:08:45;;;;;;;8.27;2.95;;;17.60;99.90;;;16.37;100.00;100291.22;4990962;28;20064;-75
2021/07/01 08:11:11;;;;;;;8.35;3.20;;;17.70;99.90;;;16.47;100.00;100299.28;4986478;28;20538;-76
2021/07/01 08:13:39;;;;;;;9.02;2.97;;;17.70;99.90;;;16.47;100.00;100304.59;5000518;28;20108;-77
2021/07/01 08:16:07;;;;;;;8.80;3.80;;;17.70;99.90;;;16.49;100.00;100296.53;5003412;28;20025;-76
2021/07/01 08:18:41;;;;;;;7.00;3.20;;;17.70;99.90;;;16.51;100.00;100298.09;4992892;28;20527;-76
2021/07/01 08:21:14;;;;;;;8.30;3.28;;;17.80;99.90;;;16.47;100.00;100306.44;4975586;28;20072;-77
2021/07/01 08:23:42;;;;;;;6.57;2.55;;;17.70;99.90;;;16.42;100.00;100300.63;4980406;28;20061;-75
2021/07/01 08:26:10;;;;;;;12.77;3.33;;;17.70;99.90;;;16.49;100.00;100318.63;4983656;28;20566;-75
2021/07/01 08:28:36;;;;;;;7.03;2.78;;;17.60;99.90;;;16.34;100.00;100318.00;4980419;28;20498;-76
2021/07/01 08:31:19;;;;;;;12.80;3.30;;;17.60;99.90;;;16.29;100.00;100319.34;4981918;28;20030;-75
2021/07/01 08:34:28;;;;;;;8.80;3.30;;;17.50;99.90;;;16.28;100.00;100318.47;4997736;28;20040;-76
2021/07/01 08:36:57;;;;;;;8.73;3.33;;;17.50;99.90;;;16.23;100.00;100315.31;5000242;28;20060;-77
2021/07/01 08:39:28;;;;;;;6.82;3.10;;;17.40;99.90;;;16.25;100.00;100328.50;4989254;28;20029;-76
2021/07/01 08:41:57;;;;;;;11.30;3.42;;;17.50;99.90;;;16.26;100.00;100323.03;4990344;28;20064;-77
2021/07/01 08:44:36;;;;;;;8.23;3.15;;;17.50;99.90;;;16.29;100.00;100327.31;4996961;28;20022;-76
2021/07/01 08:47:15;;;;;;;7.93;2.72;;;17.60;99.90;;;16.39;100.00;100333.56;5012515;28;20030;-76
2021/07/01 08:49:55;;;;;;;5.93;2.83;;;17.60;99.90;;;16.45;100.00;100335.75;5005893;28;20017;-75
2021/07/01 08:52:28;;;;;;;8.25;2.95;;;17.70;99.90;;;16.42;100.00;100325.38;5000487;28;20033;-77
2021/07/01 08:55:03;;;;;;;6.70;2.72;;;17.60;99.90;;;16.40;100.00;100332.63;5020138;28;20485;-76
2021/07/01 08:57:36;;;;;;;8.40;2.80;;;17.60;99.90;;;16.48;100.00;100329.34;5010337;28;20045;-76
2021/07/01 09:00:19;;;;;;;8.05;2.45;;;17.70;99.90;;;16.55;100.00;100331.44;5011781;28;20057;-76
2021/07/01 09:03:07;;;;;;;7.25;2.70;;;17.70;99.90;;;16.66;100.00;100343.88;4998697;28;20059;-75
2021/07/01 09:05:38;;;;;;;6.25;2.40;;;17.90;99.90;;;16.79;100.00;100346.44;4980187;28;20080;-76
2021/07/01 09:08:17;;;;;;;7.28;2.53;;;18.10;99.90;;;16.93;100.00;100334.72;4997682;28;20045;-76
2021/07/01 09:10:53;;;;;;;7.85;2.60;;;18.10;99.90;;;16.98;100.00;100343.22;4998655;28;20450;-76
2021/07/01 09:13:39;;;;;;;6.28;2.70;;;18.00;99.90;;;16.69;100.00;100348.13;4945392;28;20085;-77
2021/07/01 09:16:24;;;;;;;8.43;2.33;;;18.00;99.90;;;16.63;100.00;100345.94;4942980;28;20061;-75
2021/07/01 09:18:54;;;;;;;8.27;2.70;;;17.90;99.90;;;16.70;100.00;100345.34;4968006;28;20065;-75
2021/07/01 09:21:21;;;;;;;6.18;2.28;;;17.90;99.90;;;16.78;100.00;100344.72;4996379;28;20538;-75
2021/07/01 09:23:48;;;;;;;7.43;2.47;;;18.00;99.90;;;16.78;100.00;100350.03;5001936;28;20390;-76
2021/07/01 09:26:23;;;;;;;9.43;2.40;;;18.00;99.90;;;16.85;100.00;100353.97;4998001;28;20051;-76
2021/07/01 09:28:51;;;;;;;6.35;1.98;;;18.10;99.90;;;16.76;100.00;100346.66;4996808;28;20955;-76
2021/07/01 09:31:23;;;;;;;12.18;2.55;;;17.90;99.90;;;16.61;100.00;100362.84;5000576;28;20038;-75
2021/07/01 09:33:51;;;;;;;5.18;2.25;;;17.80;99.90;;;16.57;100.00;100357.91;4997441;28;20038;-76
2021/07/01 09:36:24;;;;;;;14.13;2.20;;;17.80;99.90;;;16.52;100.00;100366.25;5014269;28;20122;-76
2021/07/01 09:38:53;;;;;;;6.70;2.40;;;17.80;99.90;;;16.43;100.00;100361.59;5000263;28;20060;-76
2021/07/01 09:41:22;;;;;;;4.68;2.30;;;17.70;99.90;;;16.37;100.00;100368.25;4996542;28;20100;-76
2021/07/01 09:43:50;;;;;;;6.80;2.42;;;17.70;99.90;;;16.43;100.00;100363.44;4981653;28;20347;-75
2021/07/01 09:46:28;;;;;;;6.07;2.22;;;17.60;99.90;;;16.32;100.00;100359.78;4991569;28;20159;-75
2021/07/01 09:49:38;;;;;;;4.63;2.30;;;17.70;99.90;;;16.34;100.00;100370.28;4956999;28;20570;-76
2021/07/01 09:52:41;;;;;;;5.13;2.42;;;17.50;99.90;;;16.30;100.00;100368.84;4957987;28;20083;-75
2021/07/01 09:55:53;;;;;;;6.50;2.85;;;17.40;99.90;;;16.03;100.00;100377.09;4958338;28;20041;-75
2021/07/01 09:59:28;;;;;;;7.75;3.13;;;17.30;99.90;;;16.09;100.00;100380.13;4939068;28;20464;-75
2021/07/01 10:02:50;;;;;;;6.18;3.28;;;17.40;99.90;;;16.18;100.00;100378.59;4955246;28;20405;-76
2021/07/01 10:10:20;;;;;;;11.10;3.70;;;17.40;99.90;;;16.32;100.00;100378.38;4947840;28;20045;-76
2021/07/01 10:14:03;;;;;;;5.90;3.35;;;17.40;99.90;;;16.35;100.00;100380.81;4960624;28;20785;-76
2021/07/01 10:17:34;;;;;;;5.80;3.40;;;17.50;99.90;;;16.33;100.00;100387.22;4973326;28;20532;-75